Time;durP1;ratioP1;P1;durP2;ratioP2;P2;SDS_P1;SDS_P2;PMS_P1;PMS_P2;Temp;Humidity;BMP_temperature;BMP_pressure;BME280_temperature;BME280_humidity;BME280_pressure;Samples;Min_cycle;Max_cycle;Signal;HPM_P1;HPM_P2
2023/09/04 00:01:36;;;;;;;0.75;0.75;;;14.00;99.90;;;;;;5093465;28;20039;-66
2023/09/04 00:04:03;;;;;;;0.80;0.80;;;14.00;99.90;;;;;;5093411;28;20028;-63
2023/09/04 00:06:30;;;;;;;0.75;0.75;;;14.00;99.90;;;;;;5092947;28;20450;-63
2023/09/04 00:08:57;;;;;;;1.42;0.90;;;13.90;99.90;;;;;;5093384;28;20048;-63
2023/09/04 00:11:27;;;;;;;1.00;0.90;;;13.90;99.90;;;;;;5093300;28;20456;-64
2023/09/04 00:13:52;;;;;;;1.00;1.00;;;14.10;99.90;;;;;;5093302;28;20468;-63
2023/09/04 00:16:18;;;;;;;0.70;0.70;;;14.70;99.90;;;;;;5091847;28;20157;-62
2023/09/04 00:18:44;;;;;;;1.20;1.10;;;13.80;99.90;;;;;;5108715;28;20082;-62
2023/09/04 00:21:09;;;;;;;0.88;0.88;;;13.80;99.90;;;;;;5092873;28;20527;-62
2023/09/04 00:23:35;;;;;;;0.80;0.80;;;13.80;99.90;;;;;;5092867;28;20036;-62
2023/09/04 00:26:00;;;;;;;0.90;0.90;;;13.80;99.90;;;;;;5092846;28;20050;-62
2023/09/04 00:28:26;;;;;;;0.73;0.73;;;13.80;99.90;;;;;;5093135;28;20071;-62
2023/09/04 00:30:52;;;;;;;0.88;0.88;;;13.80;99.90;;;;;;5092777;28;20040;-62
2023/09/04 00:33:17;;;;;;;1.13;1.02;;;13.80;99.90;;;;;;5092789;28;20044;-62
2023/09/04 00:35:43;;;;;;;1.30;1.20;;;13.70;99.90;;;;;;5093010;28;20123;-62
2023/09/04 00:38:09;;;;;;;1.20;1.10;;;13.80;99.90;;;;;;5093030;28;20480;-62
2023/09/04 00:40:34;;;;;;;1.33;1.10;;;13.70;99.90;;;;;;5092664;28;20082;-62
2023/09/04 00:43:00;;;;;;;1.15;1.10;;;13.70;99.90;;;;;;5092943;28;20441;-63
2023/09/04 00:45:26;;;;;;;1.15;1.13;;;13.70;99.90;;;;;;5074911;28;20560;-62
2023/09/04 00:47:52;;;;;;;1.20;1.10;;;13.70;99.90;;;;;;5092897;28;20044;-62
2023/09/04 00:50:22;;;;;;;1.30;1.15;;;13.70;99.90;;;;;;5092931;28;20392;-62
2023/09/04 00:52:51;;;;;;;1.30;1.20;;;13.60;99.90;;;;;;5093011;28;20119;-62
2023/09/04 00:55:17;;;;;;;0.90;0.90;;;13.60;99.90;;;;;;5093245;28;20313;-62
2023/09/04 00:57:43;;;;;;;1.17;1.10;;;13.60;99.90;;;;;;5097029;28;20044;-62
2023/09/04 01:00:12;;;;;;;1.30;1.17;;;13.60;99.90;;;;;;5096501;28;20062;-62
2023/09/04 01:02:39;;;;;;;1.48;1.38;;;13.60;99.90;;;;;;5096898;28;20475;-62
2023/09/04 01:05:06;;;;;;;1.38;1.27;;;13.50;99.90;;;;;;5096338;28;20145;-61
2023/09/04 01:07:32;;;;;;;1.10;1.00;;;13.50;99.90;;;;;;5096377;28;20129;-61
2023/09/04 01:09:59;;;;;;;1.17;1.15;;;13.50;99.90;;;;;;5096741;28;20107;-62
2023/09/04 01:12:39;;;;;;;1.30;1.20;;;13.50;99.90;;;;;;5096323;28;20040;-62
2023/09/04 01:15:06;;;;;;;1.13;1.13;;;13.50;99.90;;;;;;5096712;28;20040;-66
2023/09/04 01:17:32;;;;;;;1.55;1.02;;;13.40;99.90;;;;;;5096575;28;20075;-66
2023/09/04 01:19:57;;;;;;;1.15;1.05;;;13.40;99.90;;;;;;5096517;28;20043;-66
2023/09/04 01:22:24;;;;;;;0.88;0.85;;;13.40;99.90;;;;;;5096464;28;20040;-66
2023/09/04 01:24:50;;;;;;;1.50;1.40;;;13.40;99.90;;;;;;5096078;28;20040;-66
2023/09/04 01:27:27;;;;;;;0.90;0.90;;;13.40;99.90;;;;;;5096515;28;20055;-64
2023/09/04 01:30:05;;;;;;;1.40;1.30;;;13.30;99.90;;;;;;5096344;28;20404;-64
2023/09/04 01:32:37;;;;;;;1.23;1.13;;;13.40;99.90;;;;;;5096324;28;20115;-64
2023/09/04 01:35:05;;;;;;;1.27;1.10;;;13.30;99.90;;;;;;5096160;28;20032;-64
2023/09/04 01:37:31;;;;;;;2.00;1.38;;;13.30;99.90;;;;;;5096174;28;20129;-63
2023/09/04 01:39:57;;;;;;;1.40;1.30;;;13.30;99.90;;;;;;5095811;28;20047;-64
2023/09/04 01:42:23;;;;;;;1.30;1.20;;;13.30;99.90;;;;;;5095767;28;20123;-64
2023/09/04 01:44:48;;;;;;;1.48;1.30;;;13.30;99.90;;;;;;5094550;28;20078;-65
2023/09/04 01:47:14;;;;;;;1.20;1.10;;;13.20;99.90;;;;;;5095925;28;20399;-64
2023/09/04 01:49:40;;;;;;;1.20;1.10;;;13.20;99.90;;;;;;5095980;28;20039;-63
2023/09/04 01:52:05;;;;;;;1.30;1.20;;;13.20;99.90;;;;;;5095915;28;20501;-64
2023/09/04 01:54:31;;;;;;;1.38;1.27;;;13.20;99.90;;;;;;5095818;28;20468;-64
2023/09/04 01:56:56;;;;;;;1.65;1.17;;;13.20;99.90;;;;;;5095877;28;20114;-63
2023/09/04 01:59:22;;;;;;;1.38;1.27;;;13.10;99.90;;;;;;5095712;28;20047;-63
2023/09/04 02:01:47;;;;;;;1.60;1.50;;;13.90;99.90;;;;;;5096003;28;20031;-66
2023/09/04 02:04:13;;;;;;;2.03;1.92;;;13.10;99.90;;;;;;5095700;28;20547;-66
2023/09/04 02:06:39;;;;;;;1.42;1.33;;;13.80;99.90;;;;;;5095077;28;20109;-66
2023/09/04 02:09:04;;;;;;;1.48;1.38;;;13.10;99.90;;;;;;5094709;28;20048;-66
2023/09/04 02:11:30;;;;;;;1.30;1.25;;;13.10;99.90;;;;;;5095564;28;20044;-66
2023/09/04 02:13:55;;;;;;;1.70;1.60;;;13.00;99.90;;;;;;5110928;28;20040;-66
2023/09/04 02:16:22;;;;;;;1.48;1.35;;;13.00;99.90;;;;;;5095422;28;20068;-67
2023/09/04 02:18:48;;;;;;;1.60;1.50;;;12.90;99.90;;;;;;5093859;28;20044;-67
2023/09/04 02:21:14;;;;;;;1.63;1.52;;;12.90;99.90;;;;;;5095112;28;20036;-68
2023/09/04 02:23:40;;;;;;;1.52;1.42;;;12.90;99.90;;;;;;5095347;28;20032;-66
2023/09/04 02:26:05;;;;;;;2.63;2.08;;;13.00;99.90;;;;;;5095351;28;20044;-63
2023/09/04 02:28:31;;;;;;;1.90;1.80;;;12.90;99.90;;;;;;5095115;28;20369;-62
2023/09/04 02:30:57;;;;;;;2.33;1.98;;;12.90;99.90;;;;;;5094844;28;20037;-62
2023/09/04 02:33:22;;;;;;;2.13;1.98;;;13.00;99.90;;;;;;5093732;28;20510;-63
2023/09/04 02:35:48;;;;;;;1.63;1.52;;;12.90;99.90;;;;;;5095167;28;20364;-62
2023/09/04 02:38:14;;;;;;;2.03;1.83;;;12.90;99.90;;;;;;5094650;28;20036;-62
2023/09/04 02:40:39;;;;;;;1.80;1.70;;;12.90;99.90;;;;;;5095009;28;20044;-63
2023/09/04 02:43:05;;;;;;;2.35;2.15;;;12.90;99.90;;;;;;5094836;28;20036;-62
2023/09/04 02:45:32;;;;;;;1.63;1.52;;;12.90;99.90;;;;;;5110341;28;20058;-63
2023/09/04 02:47:58;;;;;;;1.67;1.58;;;12.90;99.90;;;;;;5094531;28;20081;-62
2023/09/04 02:50:23;;;;;;;1.83;1.73;;;12.90;99.90;;;;;;5094479;28;20040;-63
2023/09/04 02:52:49;;;;;;;1.92;1.83;;;12.80;99.90;;;;;;5094806;28;20036;-62
2023/09/04 02:55:14;;;;;;;2.05;1.85;;;12.80;99.90;;;;;;5076565;28;20389;-62
2023/09/04 02:57:40;;;;;;;2.45;2.25;;;12.80;99.90;;;;;;5094779;28;20048;-62
2023/09/04 03:00:06;;;;;;;2.72;2.53;;;12.80;99.90;;;;;;5094574;28;20062;-62
2023/09/04 03:02:35;;;;;;;2.40;2.20;;;12.80;99.90;;;;;;5094540;28;20039;-63
2023/09/04 03:05:01;;;;;;;2.25;2.13;;;12.80;99.90;;;;;;5110129;28;20439;-63
2023/09/04 03:07:27;;;;;;;2.47;2.28;;;12.80;99.90;;;;;;5094514;28;20043;-62
2023/09/04 03:09:59;;;;;;;2.47;2.28;;;12.80;99.90;;;;;;5093986;28;20035;-62
2023/09/04 03:12:28;;;;;;;2.20;2.00;;;12.80;99.90;;;;;;5092880;28;20036;-62
2023/09/04 03:14:59;;;;;;;2.00;1.90;;;12.80;99.90;;;;;;5094305;28;20120;-62
2023/09/04 03:17:27;;;;;;;2.25;1.52;;;13.20;99.90;;;;;;5094353;28;20044;-62
2023/09/04 03:19:54;;;;;;;2.10;2.00;;;12.80;99.90;;;;;;5094099;28;20556;-62
2023/09/04 03:22:24;;;;;;;2.00;1.90;;;12.80;99.90;;;;;;5094143;28;20075;-62
2023/09/04 03:24:50;;;;;;;2.35;2.15;;;12.70;99.90;;;;;;5093053;28;20410;-63
2023/09/04 03:27:16;;;;;;;1.90;1.80;;;12.70;99.90;;;;;;5094131;28;20048;-61
2023/09/04 03:29:42;;;;;;;2.35;2.15;;;12.70;99.90;;;;;;5092558;28;20093;-62
2023/09/04 03:32:08;;;;;;;2.38;2.17;;;12.70;99.90;;;;;;5093754;28;20039;-62
2023/09/04 03:34:34;;;;;;;2.40;2.20;;;12.60;99.90;;;;;;5093924;28;20457;-61
2023/09/04 03:36:59;;;;;;;2.47;2.28;;;12.60;99.90;;;;;;5094123;28;20118;-67
2023/09/04 03:39:25;;;;;;;2.70;2.50;;;12.70;99.90;;;;;;5109409;28;20044;-67
2023/09/04 03:41:51;;;;;;;2.80;2.60;;;12.60;99.90;;;;;;5092522;28;20506;-66
2023/09/04 03:44:17;;;;;;;2.42;2.22;;;12.60;99.90;;;;;;5093684;28;20056;-66
2023/09/04 03:46:43;;;;;;;2.60;2.40;;;12.60;99.90;;;;;;5093496;28;20134;-62
2023/09/04 03:49:09;;;;;;;2.30;2.13;;;12.60;99.90;;;;;;5093480;28;20042;-64
2023/09/04 03:51:34;;;;;;;3.65;2.50;;;12.50;99.90;;;;;;5093657;28;20476;-62
2023/09/04 03:54:03;;;;;;;2.70;2.50;;;12.50;99.90;;;;;;5109137;28;20039;-62
2023/09/04 03:56:30;;;;;;;2.00;1.90;;;12.50;99.90;;;;;;5093355;28;20043;-62
2023/09/04 03:58:56;;;;;;;2.80;2.60;;;12.50;99.90;;;;;;5093208;28;20044;-62
2023/09/04 04:01:22;;;;;;;2.60;2.40;;;12.50;99.90;;;;;;5091957;28;20052;-62
2023/09/04 04:03:49;;;;;;;2.50;2.30;;;12.50;99.90;;;;;;5093405;28;20403;-63
2023/09/04 04:06:15;;;;;;;1.83;1.73;;;12.40;99.90;;;;;;5093083;28;20621;-62
2023/09/04 04:08:41;;;;;;;2.40;2.20;;;12.40;99.90;;;;;;5093337;28;20119;-63
2023/09/04 04:11:06;;;;;;;2.35;2.22;;;12.50;99.90;;;;;;5093416;28;20036;-62
2023/09/04 04:13:32;;;;;;;2.45;2.25;;;12.40;99.90;;;;;;5093177;28;20028;-62
2023/09/04 04:15:59;;;;;;;2.47;2.28;;;12.40;99.90;;;;;;5093266;28;20539;-63
2023/09/04 04:18:26;;;;;;;2.55;2.35;;;12.30;99.90;;;;;;5093265;28;20069;-63
2023/09/04 04:20:52;;;;;;;2.40;2.20;;;12.40;99.90;;;;;;5093210;28;20036;-64
2023/09/04 04:23:18;;;;;;;2.25;2.05;;;12.30;99.90;;;;;;5093267;28;20476;-62
2023/09/04 04:25:43;;;;;;;1.90;1.80;;;13.00;99.90;;;;;;5093282;28;20138;-62
2023/09/04 04:28:09;;;;;;;2.85;2.03;;;12.30;99.90;;;;;;5108638;28;20458;-62
2023/09/04 04:30:35;;;;;;;1.83;1.73;;;12.30;99.90;;;;;;5092657;28;20040;-63
2023/09/04 04:33:02;;;;;;;2.20;2.10;;;12.30;99.90;;;;;;5092755;28;20036;-63
2023/09/04 04:35:27;;;;;;;2.38;2.17;;;12.20;99.90;;;;;;5092803;28;20040;-62
2023/09/04 04:37:53;;;;;;;2.22;2.13;;;12.20;99.90;;;;;;5092723;28;20043;-62
2023/09/04 04:40:23;;;;;;;2.22;2.13;;;12.20;99.90;;;;;;5093012;28;20085;-62
2023/09/04 04:42:48;;;;;;;2.40;2.20;;;12.20;99.90;;;;;;5093053;28;20040;-63
2023/09/04 04:45:14;;;;;;;2.08;1.98;;;12.60;99.90;;;;;;5091473;28;20047;-63
2023/09/04 04:47:40;;;;;;;2.38;2.10;;;12.20;99.90;;;;;;5092952;28;20529;-63
2023/09/04 04:50:06;;;;;;;1.88;1.77;;;12.30;99.90;;;;;;5092619;28;20039;-63
2023/09/04 04:52:31;;;;;;;1.80;1.70;;;12.20;99.90;;;;;;5093043;28;20074;-62
2023/09/04 04:54:57;;;;;;;2.10;1.90;;;12.20;99.90;;;;;;5092934;28;20471;-63
2023/09/04 04:57:23;;;;;;;1.98;1.88;;;12.20;99.90;;;;;;5092944;28;20500;-63
2023/09/04 04:59:48;;;;;;;2.05;1.95;;;12.20;99.90;;;;;;5092831;28;20114;-63
2023/09/04 05:02:17;;;;;;;2.15;2.00;;;12.20;99.90;;;;;;5092789;28;20377;-63
2023/09/04 05:04:45;;;;;;;2.33;2.15;;;12.20;99.90;;;;;;5092753;28;20036;-63
2023/09/04 05:07:11;;;;;;;1.95;1.85;;;12.20;99.90;;;;;;5092692;28;20048;-63
2023/09/04 05:09:38;;;;;;;2.22;2.03;;;12.70;99.90;;;;;;5092757;28;20101;-64
2023/09/04 05:12:03;;;;;;;2.13;2.03;;;12.10;99.90;;;;;;5092773;28;20050;-63
2023/09/04 05:14:29;;;;;;;1.88;1.77;;;12.10;99.90;;;;;;5092662;28;20040;-63
2023/09/04 05:16:55;;;;;;;2.08;1.98;;;12.10;99.90;;;;;;5092745;28;20036;-62
2023/09/04 05:19:21;;;;;;;2.05;1.95;;;12.20;99.90;;;;;;5092541;28;20036;-63
2023/09/04 05:21:47;;;;;;;2.33;2.13;;;12.20;99.90;;;;;;5091251;28;20119;-63
2023/09/04 05:24:13;;;;;;;1.83;1.73;;;12.20;99.90;;;;;;5092675;28;20043;-62
2023/09/04 05:26:39;;;;;;;2.08;1.98;;;12.20;99.90;;;;;;5092337;28;20028;-62
2023/09/04 05:29:04;;;;;;;1.60;1.50;;;12.20;99.90;;;;;;5092550;28;20035;-61
2023/09/04 05:31:30;;;;;;;1.73;1.63;;;12.20;99.90;;;;;;5108305;28;20480;-61
2023/09/04 05:33:55;;;;;;;1.65;1.55;;;12.30;99.90;;;;;;5092515;28;20046;-62
2023/09/04 05:36:21;;;;;;;1.77;1.67;;;12.30;99.90;;;;;;5092580;28;20527;-62
2023/09/04 05:38:47;;;;;;;1.10;1.10;;;12.40;99.90;;;;;;5092517;28;20028;-62
2023/09/04 05:41:13;;;;;;;1.23;1.13;;;12.40;99.90;;;;;;5107882;28;20101;-62
2023/09/04 05:43:39;;;;;;;1.70;1.60;;;12.50;99.90;;;;;;5094874;28;20497;-64
2023/09/04 05:46:04;;;;;;;1.45;1.35;;;12.40;99.90;;;;;;5096043;28;20123;-63
2023/09/04 05:48:31;;;;;;;1.38;1.27;;;12.50;99.90;;;;;;5095881;28;20044;-63
2023/09/04 05:50:57;;;;;;;1.50;1.40;;;12.50;99.90;;;;;;5095727;28;20039;-63
2023/09/04 05:53:24;;;;;;;1.30;1.20;;;12.60;99.90;;;;;;5096012;28;20035;-63
2023/09/04 05:56:06;;;;;;;1.40;1.30;;;12.60;99.90;;;;;;5095906;28;20480;-64
2023/09/04 05:58:33;;;;;;;1.33;1.25;;;12.60;99.90;;;;;;5095732;28;20094;-64
2023/09/04 06:00:59;;;;;;;1.73;1.60;;;12.70;99.90;;;;;;5095517;28;20070;-64
2023/09/04 06:03:26;;;;;;;1.40;1.30;;;12.70;99.90;;;;;;5094585;28;20036;-63
2023/09/04 06:05:51;;;;;;;1.15;1.15;;;12.80;99.90;;;;;;5095269;28;20067;-64
2023/09/04 06:08:17;;;;;;;1.58;1.48;;;12.90;99.90;;;;;;5095858;28;20040;-67
2023/09/04 06:10:43;;;;;;;1.65;1.55;;;12.90;99.90;;;;;;5095334;28;20081;-63
2023/09/04 06:13:09;;;;;;;1.60;1.50;;;13.10;99.90;;;;;;5095549;28;20043;-63
2023/09/04 06:15:34;;;;;;;1.95;1.52;;;13.10;99.90;;;;;;5095454;28;20449;-63
2023/09/04 06:18:00;;;;;;;1.52;1.42;;;13.20;99.90;;;;;;5095423;28;20446;-64
2023/09/04 06:20:25;;;;;;;1.83;1.70;;;13.30;99.90;;;;;;5095367;28;20036;-64
2023/09/04 06:22:51;;;;;;;2.10;1.90;;;13.40;99.90;;;;;;5094959;28;20040;-64
2023/09/04 06:25:17;;;;;;;1.85;1.75;;;13.50;99.90;;;;;;5110882;28;20048;-63
2023/09/04 06:27:43;;;;;;;1.65;1.55;;;13.60;99.90;;;;;;5095278;28;20110;-63
2023/09/04 06:30:09;;;;;;;1.77;1.67;;;13.70;99.90;;;;;;5095220;28;20156;-63
2023/09/04 06:32:35;;;;;;;1.80;1.70;;;13.90;99.90;;;;;;5095331;28;20036;-64
2023/09/04 06:35:00;;;;;;;2.10;2.00;;;14.00;99.90;;;;;;5095062;28;20491;-63
2023/09/04 06:37:26;;;;;;;1.60;1.50;;;14.10;99.90;;;;;;5095077;28;20475;-64
2023/09/04 06:39:51;;;;;;;1.67;1.58;;;14.20;99.90;;;;;;5095017;28;20036;-64
2023/09/04 06:42:17;;;;;;;1.65;1.55;;;14.40;99.90;;;;;;5094662;28;20431;-64
2023/09/04 06:44:43;;;;;;;1.90;1.80;;;14.50;99.90;;;;;;5094892;28;20123;-64
2023/09/04 06:47:09;;;;;;;1.60;1.50;;;14.60;99.90;;;;;;5094801;28;20071;-63
2023/09/04 06:49:35;;;;;;;2.00;1.80;;;14.70;99.90;;;;;;5076506;28;20546;-64
2023/09/04 06:52:00;;;;;;;1.60;1.50;;;14.80;99.90;;;;;;5094493;28;20189;-63
2023/09/04 06:54:26;;;;;;;1.83;1.73;;;15.00;99.90;;;;;;5092785;28;20039;-63
2023/09/04 06:56:52;;;;;;;1.88;1.48;;;15.10;99.90;;;;;;5094335;28;20040;-64
2023/09/04 06:59:17;;;;;;;1.70;1.60;;;15.20;99.90;;;;;;5094636;28;20032;-63
2023/09/04 07:01:43;;;;;;;1.50;1.40;;;15.30;99.90;;;;;;5094593;28;20165;-63
2023/09/04 07:04:08;;;;;;;1.50;1.40;;;15.40;99.90;;;;;;5094507;28;20509;-63
2023/09/04 07:06:34;;;;;;;1.50;1.40;;;15.50;99.90;;;;;;5094106;28;20058;-63
2023/09/04 07:08:59;;;;;;;1.67;1.58;;;15.50;99.90;;;;;;5094324;28;20065;-63
2023/09/04 07:11:25;;;;;;;1.42;1.33;;;15.60;99.90;;;;;;5094399;28;20391;-63
2023/09/04 07:13:52;;;;;;;1.30;1.20;;;15.70;99.90;;;;;;5094251;28;20036;-63
2023/09/04 07:16:18;;;;;;;1.60;1.50;;;16.20;99.90;;;;;;5094384;28;20434;-63
2023/09/04 07:18:43;;;;;;;1.50;1.40;;;15.90;99.90;;;;;;5094387;28;20055;-62
2023/09/04 07:21:09;;;;;;;1.40;1.30;;;15.80;99.90;;;;;;5093922;28;20395;-63
2023/09/04 07:23:34;;;;;;;1.27;1.20;;;16.10;99.90;;;;;;5094229;28;20148;-63
2023/09/04 07:26:01;;;;;;;2.20;1.00;;;16.20;99.90;;;;;;5094135;28;20048;-63
2023/09/04 07:28:27;;;;;;;1.50;1.40;;;16.40;99.90;;;;;;5092498;28;20092;-64
2023/09/04 07:31:14;;;;;;;1.42;1.33;;;16.50;99.90;;;;;;5093755;28;20044;-64
2023/09/04 07:33:39;;;;;;;1.20;1.10;;;16.70;99.90;;;;;;5093953;28;20046;-63
2023/09/04 07:36:05;;;;;;;2.20;1.40;;;16.80;99.90;;;;;;5093888;28;20535;-63
2023/09/04 07:38:31;;;;;;;1.33;1.23;;;17.00;99.90;;;;;;5093877;28;20040;-64
2023/09/04 07:41:04;;;;;;;1.40;1.30;;;17.10;99.90;;;;;;5093801;28;20036;-63
2023/09/04 07:43:33;;;;;;;2.28;1.08;;;17.80;99.90;;;;;;5093717;28;20032;-63
2023/09/04 07:46:00;;;;;;;1.23;1.13;;;17.50;99.90;;;;;;5093786;28;20082;-62
2023/09/04 07:48:26;;;;;;;1.42;1.30;;;17.40;99.90;;;;;;5093651;28;20161;-63
2023/09/04 07:50:52;;;;;;;1.40;1.30;;;17.50;99.90;;;;;;5093711;28;20067;-64
2023/09/04 07:53:18;;;;;;;1.80;1.35;;;17.60;99.90;;;;;;5093719;28;20043;-61
2023/09/04 07:55:45;;;;;;;1.13;1.10;;;17.70;99.90;;;;;;5093672;28;20113;-64
2023/09/04 07:58:11;;;;;;;1.00;1.00;;;17.80;99.90;;;;;;5093423;28;20055;-64
2023/09/04 08:00:42;;;;;;;0.95;0.95;;;17.80;99.90;;;;;;5093500;28;20036;-64
2023/09/04 08:03:07;;;;;;;0.90;0.90;;;18.00;99.90;;;;;;5093523;28;20067;-63
2023/09/04 08:05:33;;;;;;;1.08;1.08;;;18.10;99.90;;;;;;5092411;28;20513;-64
2023/09/04 08:07:58;;;;;;;1.75;1.30;;;18.30;99.90;;;;;;5093345;28;20536;-64
2023/09/04 08:10:24;;;;;;;0.95;0.95;;;18.50;99.90;;;;;;5092982;28;20438;-64
2023/09/04 08:12:50;;;;;;;1.25;1.15;;;18.60;99.90;;;;;;5092027;28;20076;-64
2023/09/04 08:15:15;;;;;;;1.02;1.02;;;18.70;99.90;;;;;;5093019;28;20047;-63
2023/09/04 08:17:41;;;;;;;1.15;0.98;;;18.80;99.90;;;;;;5093048;28;20047;-63
2023/09/04 08:20:07;;;;;;;1.00;1.00;;;18.90;99.90;;;;;;5093270;28;20084;-64
2023/09/04 08:22:33;;;;;;;0.82;0.82;;;18.90;99.40;;;;;;5093223;28;20446;-63
2023/09/04 08:24:59;;;;;;;1.10;1.00;;;19.00;99.90;;;;;;5093174;28;20075;-64
2023/09/04 08:27:24;;;;;;;1.20;1.10;;;19.20;99.90;;;;;;5108496;28;20487;-64
2023/09/04 08:29:51;;;;;;;0.98;0.90;;;19.30;99.90;;;;;;5091860;28;20036;-64
2023/09/04 08:32:16;;;;;;;1.20;1.08;;;19.30;99.90;;;;;;5093111;28;20089;-64
2023/09/04 08:34:42;;;;;;;0.80;0.80;;;19.40;94.10;;;;;;5074603;28;20404;-65
2023/09/04 08:37:07;;;;;;;0.77;0.77;;;19.70;96.60;;;;;;5092983;28;20082;-63
2023/09/04 08:39:33;;;;;;;0.70;0.70;;;19.50;97.10;;;;;;5093027;28;20051;-64
2023/09/04 08:41:59;;;;;;;1.25;1.15;;;19.40;62.20;;;;;;5093041;28;20036;-70
2023/09/04 08:44:25;;;;;;;1.08;0.98;;;19.80;3.90;;;;;;5091535;28;20044;-64
2023/09/04 08:46:52;;;;;;;1.15;1.00;;;19.70;1.00;;;;;;5092900;28;20051;-63
2023/09/04 08:49:19;;;;;;;0.88;0.88;;;19.80;1.00;;;;;;5091802;28;20391;-64
2023/09/04 08:51:45;;;;;;;0.80;0.80;;;19.90;1.00;;;;;;5091611;28;20036;-64
2023/09/04 08:54:11;;;;;;;0.88;0.88;;;20.00;1.00;;;;;;5092860;28;20130;-63
2023/09/04 08:56:38;;;;;;;1.35;1.20;;;20.00;1.00;;;;;;5092574;28;20051;-63
2023/09/04 08:59:04;;;;;;;0.95;0.95;;;20.10;1.00;;;;;;5092552;28;20043;-64
2023/09/04 09:01:33;;;;;;;1.13;1.00;;;20.40;99.90;;;;;;5092907;28;20048;-64
2023/09/04 09:04:00;;;;;;;2.05;0.90;;;20.10;1.00;;;;;;5092469;28;20036;-64
2023/09/04 09:06:26;;;;;;;0.70;0.70;;;20.10;1.00;;;;;;5092470;28;20052;-62
2023/09/04 09:08:56;;;;;;;0.75;0.75;;;20.10;99.90;;;;;;5092755;28;20071;-63
2023/09/04 09:11:22;;;;;;;1.23;0.77;;;20.20;99.90;;;;;;5092826;28;20036;-64
2023/09/04 09:13:48;;;;;;;0.90;0.90;;;20.20;99.90;;;;;;5093158;28;20072;-69
2023/09/04 09:16:20;;;;;;;0.80;0.80;;;20.20;99.90;;;;;;5093007;28;20086;-65
2023/09/04 09:18:48;;;;;;;0.60;0.60;;;20.30;1.00;;;;;;5096681;28;20123;-64
2023/09/04 09:21:23;;;;;;;0.80;0.80;;;20.20;99.90;;;;;;5096535;28;20036;-64
2023/09/04 09:24:05;;;;;;;0.95;0.90;;;20.30;99.90;;;;;;5094949;28;20044;-64
2023/09/04 09:26:31;;;;;;;0.50;0.50;;;20.20;99.90;;;;;;5096115;28;20257;-64
2023/09/04 09:28:57;;;;;;;0.60;0.60;;;20.50;99.90;;;;;;5096407;28;20040;-64
2023/09/04 09:31:23;;;;;;;0.60;0.60;;;20.20;99.90;;;;;;5096413;28;20434;-64
2023/09/04 09:33:49;;;;;;;1.15;0.70;;;20.20;99.90;;;;;;5096343;28;20024;-64
2023/09/04 09:36:15;;;;;;;0.60;0.60;;;20.30;99.90;;;;;;5095978;28;20107;-64
2023/09/04 09:38:46;;;;;;;0.55;0.55;;;20.30;99.90;;;;;;5096415;28;20178;-67
2023/09/04 09:41:15;;;;;;;0.52;0.52;;;20.40;45.10;;;;;;5096160;28;20055;-64
2023/09/04 09:43:41;;;;;;;0.85;0.60;;;20.40;1.00;;;;;;5096222;28;20476;-64
2023/09/04 09:46:10;;;;;;;0.95;0.95;;;20.50;24.10;;;;;;5094554;28;20051;-64
2023/09/04 09:48:40;;;;;;;0.80;0.80;;;20.30;94.00;;;;;;5095594;28;20051;-64
2023/09/04 09:51:06;;;;;;;;;;;20.60;1.00;;;;;;5096367;28;20437;-64
2023/09/04 09:53:49;;;;;;;0.80;0.80;;;20.60;99.90;;;;;;5095619;28;19916;-65
2023/09/04 09:56:17;;;;;;;0.63;0.50;;;20.70;99.90;;;;;;5095599;28;20048;-65
2023/09/04 09:58:45;;;;;;;0.65;0.65;;;20.90;99.90;;;;;;5094275;28;20044;-65
2023/09/04 10:01:15;;;;;;;0.70;0.70;;;20.80;99.90;;;;;;5095749;28;20052;-65
2023/09/04 10:03:43;;;;;;;0.57;0.57;;;20.90;72.60;;;;;;5095469;28;20047;-65
2023/09/04 10:06:13;;;;;;;0.70;0.70;;;21.10;1.00;;;;;;5095402;28;20478;-64
2023/09/04 10:08:41;;;;;;;1.40;0.80;;;21.20;1.00;;;;;;5095617;28;20043;-65
2023/09/04 10:11:12;;;;;;;0.90;0.80;;;21.40;1.00;;;;;;5095609;28;20064;-64
2023/09/04 10:13:49;;;;;;;0.73;0.73;;;21.50;99.90;;;;;;5095667;28;20400;-64
2023/09/04 10:16:19;;;;;;;0.73;0.73;;;21.40;99.90;;;;;;5095335;28;20461;-64
2023/09/04 10:18:49;;;;;;;1.55;1.00;;;21.60;99.90;;;;;;5095359;28;20044;-65
2023/09/04 10:21:20;;;;;;;0.77;0.68;;;21.50;99.90;;;;;;5095402;28;20040;-65
2023/09/04 10:23:52;;;;;;;0.80;0.80;;;21.40;99.90;;;;;;5094195;28;20484;-65
2023/09/04 10:26:35;;;;;;;0.98;0.98;;;21.60;1.00;;;;;;5095368;28;20098;-64
2023/09/04 10:29:03;;;;;;;1.10;0.95;;;21.70;1.00;;;;;;5094078;28;20129;-65
2023/09/04 10:31:33;;;;;;;0.70;0.70;;;21.80;1.00;;;;;;5095054;28;20040;-64
2023/09/04 10:34:00;;;;;;;0.77;0.77;;;21.60;99.90;;;;;;5095326;28;20039;-64
2023/09/04 10:36:28;;;;;;;0.70;0.70;;;21.90;99.90;;;;;;5094880;28;20047;-66
2023/09/04 10:38:55;;;;;;;0.70;0.70;;;22.00;99.90;;;;;;5093604;28;20454;-66
2023/09/04 10:41:22;;;;;;;0.60;0.60;;;22.00;99.90;;;;;;5093847;28;20040;-65
2023/09/04 10:43:47;;;;;;;0.70;0.70;;;22.10;99.90;;;;;;5095022;28;20044;-66
2023/09/04 10:46:14;;;;;;;0.60;0.60;;;22.10;1.00;;;;;;5094727;28;20094;-65
2023/09/04 10:48:44;;;;;;;1.05;0.90;;;22.10;25.90;;;;;;5094882;28;20114;-65
2023/09/04 10:51:34;;;;;;;0.70;0.70;;;22.20;1.00;;;;;;5093322;28;20090;-65
2023/09/04 10:54:26;;;;;;;0.70;0.70;;;22.20;1.00;;;;;;5094736;28;20075;-65
2023/09/04 10:56:58;;;;;;;1.42;1.00;;;22.10;99.90;;;;;;5086532;28;20040;-66
2023/09/04 10:59:24;;;;;;;1.52;0.82;;;22.10;99.90;;;;;;5094635;28;20107;-66
2023/09/04 11:01:50;;;;;;;0.98;0.70;;;23.80;99.90;;;;;;5093135;28;20036;-66
2023/09/04 11:04:45;;;;;;;0.75;0.75;;;22.20;99.90;;;;;;5094633;28;20032;-66
2023/09/04 11:07:20;;;;;;;0.80;0.80;;;22.10;24.00;;;;;;5092972;28;20101;-65
2023/09/04 11:10:00;;;;;;;1.00;1.00;;;22.10;80.00;;;;;;5110239;28;20043;-65
2023/09/04 11:12:26;;;;;;;0.60;0.60;;;22.10;85.20;;;;;;5094482;28;20036;-65
2023/09/04 11:14:54;;;;;;;0.70;0.70;;;22.20;99.90;;;;;;5092857;28;20036;-65
2023/09/04 11:17:28;;;;;;;1.00;0.93;;;22.40;99.90;;;;;;5094080;28;20040;-65
2023/09/04 11:19:54;;;;;;;0.50;0.50;;;22.20;36.80;;;;;;5094352;28;20146;-65
2023/09/04 11:22:21;;;;;;;0.70;0.70;;;22.20;59.00;;;;;;5094069;28;20077;-64
2023/09/04 11:24:47;;;;;;;1.75;0.80;;;22.20;96.30;;;;;;5092961;28;20044;-64
2023/09/04 11:27:12;;;;;;;0.80;0.80;;;22.60;99.90;;;;;;5094033;28;20124;-65
2023/09/04 11:29:38;;;;;;;0.73;0.70;;;22.30;99.90;;;;;;5094155;28;20118;-65
2023/09/04 11:32:07;;;;;;;0.70;0.70;;;22.40;99.90;;;;;;5093953;28;20518;-65
2023/09/04 11:34:32;;;;;;;0.80;0.80;;;22.50;99.90;;;;;;5092496;28;20052;-66
2023/09/04 11:36:58;;;;;;;1.10;0.85;;;22.50;99.90;;;;;;5093806;28;20043;-66
2023/09/04 11:39:23;;;;;;;0.70;0.70;;;22.60;98.90;;;;;;5093859;28;20043;-66
2023/09/04 11:41:50;;;;;;;0.77;0.73;;;22.70;99.90;;;;;;5093895;28;20032;-66
2023/09/04 11:44:15;;;;;;;0.77;0.77;;;22.60;99.90;;;;;;5093713;28;20036;-66
2023/09/04 11:46:43;;;;;;;0.60;0.60;;;22.80;95.90;;;;;;5093798;28;20483;-66
2023/09/04 11:49:09;;;;;;;0.70;0.70;;;22.80;9.00;;;;;;5092439;28;20040;-66
2023/09/04 11:51:36;;;;;;;0.70;0.70;;;22.90;14.00;;;;;;5093587;28;20392;-66
2023/09/04 11:54:08;;;;;;;0.65;0.65;;;22.90;23.10;;;;;;5093588;28;20047;-66
2023/09/04 11:56:34;;;;;;;0.82;0.82;;;23.00;4.80;;;;;;5093595;28;20442;-66
2023/09/04 11:59:02;;;;;;;0.80;0.80;;;23.00;1.00;;;;;;5093668;28;20046;-70
2023/09/04 12:01:27;;;;;;;0.77;0.68;;;23.10;1.00;;;;;;5092044;28;20094;-71
2023/09/04 12:03:53;;;;;;;2.05;0.95;;;23.20;1.00;;;;;;5108805;28;20048;-69
2023/09/04 12:06:24;;;;;;;0.80;0.80;;;23.10;1.00;;;;;;5093149;28;20052;-69
2023/09/04 12:08:50;;;;;;;0.70;0.70;;;23.10;1.00;;;;;;5093304;28;20052;-71
2023/09/04 12:11:17;;;;;;;0.73;0.73;;;23.10;1.00;;;;;;5093442;28;20480;-69
2023/09/04 12:13:43;;;;;;;0.88;0.88;;;23.20;1.00;;;;;;5093345;28;20491;-69
2023/09/04 12:16:10;;;;;;;1.58;0.90;;;23.20;99.90;;;;;;5093349;28;20395;-69
2023/09/04 12:18:37;;;;;;;0.60;0.60;;;23.30;99.90;;;;;;5093029;28;20048;-69
2023/09/04 12:21:09;;;;;;;0.68;0.68;;;23.30;99.90;;;;;;5093287;28;20440;-69
2023/09/04 12:23:45;;;;;;;0.70;0.70;;;23.40;99.90;;;;;;5091734;28;20075;-68
2023/09/04 12:26:15;;;;;;;1.15;0.73;;;23.40;99.90;;;;;;5093239;28;20051;-69
2023/09/04 12:28:42;;;;;;;0.70;0.70;;;23.50;99.90;;;;;;5093021;28;20130;-69
2023/09/04 12:31:10;;;;;;;0.57;0.50;;;23.60;99.90;;;;;;5091420;28;20043;-68
2023/09/04 12:33:41;;;;;;;0.60;0.60;;;23.60;99.90;;;;;;5093066;28;20039;-69
2023/09/04 12:36:08;;;;;;;0.50;0.50;;;23.60;99.90;;;;;;5093055;28;20420;-69
2023/09/04 12:38:35;;;;;;;0.60;0.60;;;23.60;99.90;;;;;;5093083;28;20051;-68
2023/09/04 12:41:01;;;;;;;0.50;0.50;;;23.60;99.90;;;;;;5092763;28;20531;-69
2023/09/04 12:43:26;;;;;;;0.50;0.50;;;23.60;99.90;;;;;;5091542;28;20040;-69
2023/09/04 12:45:52;;;;;;;0.70;0.70;;;23.60;99.90;;;;;;5093055;28;20115;-68
2023/09/04 12:48:17;;;;;;;0.50;0.50;;;23.90;99.90;;;;;;5092950;28;20484;-69